sensor_id;sensor_type;location;lat;lon;timestamp;P1;durP1;ratioP1;P2;durP2;ratioP2
146;SDS011;45999;48.808;9.182;2022-12-07T00:01:11;7.53;;;6.43;;
146;SDS011;45999;48.808;9.182;2022-12-07T00:03:40;7.37;;;6.50;;
146;SDS011;45999;48.808;9.182;2022-12-07T00:06:08;7.20;;;6.50;;
146;SDS011;45999;48.808;9.182;2022-12-07T00:08:37;7.77;;;6.60;;
146;SDS011;45999;48.808;9.182;2022-12-07T00:11:08;7.70;;;6.70;;
146;SDS011;45999;48.808;9.182;2022-12-07T00:13:36;7.20;;;6.43;;
146;SDS011;45999;48.808;9.182;2022-12-07T00:16:06;7.90;;;7.10;;
146;SDS011;45999;48.808;9.182;2022-12-07T00:18:33;10.03;;;7.23;;
146;SDS011;45999;48.808;9.182;2022-12-07T00:21:12;8.07;;;7.30;;
146;SDS011;45999;48.808;9.182;2022-12-07T00:23:41;7.27;;;6.57;;
146;SDS011;45999;48.808;9.182;2022-12-07T00:28:36;7.77;;;7.03;;
146;SDS011;45999;48.808;9.182;2022-12-07T00:31:04;8.57;;;7.67;;
146;SDS011;45999;48.808;9.182;2022-12-07T00:33:35;9.77;;;7.00;;
146;SDS011;45999;48.808;9.182;2022-12-07T00:36:03;7.83;;;7.03;;
146;SDS011;45999;48.808;9.182;2022-12-07T00:38:34;7.27;;;6.57;;
146;SDS011;45999;48.808;9.182;2022-12-07T00:41:03;8.00;;;7.17;;
146;SDS011;45999;48.808;9.182;2022-12-07T00:43:31;7.97;;;7.17;;
146;SDS011;45999;48.808;9.182;2022-12-07T00:45:58;8.53;;;7.57;;
146;SDS011;45999;48.808;9.182;2022-12-07T00:48:24;9.50;;;7.53;;
146;SDS011;45999;48.808;9.182;2022-12-07T00:50:51;8.10;;;7.30;;
146;SDS011;45999;48.808;9.182;2022-12-07T00:53:18;9.13;;;7.40;;
146;SDS011;45999;48.808;9.182;2022-12-07T00:55:44;9.00;;;8.10;;
146;SDS011;45999;48.808;9.182;2022-12-07T00:58:11;8.97;;;8.10;;
146;SDS011;45999;48.808;9.182;2022-12-07T01:00:39;9.13;;;8.23;;
146;SDS011;45999;48.808;9.182;2022-12-07T01:03:07;8.57;;;7.67;;
146;SDS011;45999;48.808;9.182;2022-12-07T01:05:35;10.63;;;7.83;;
146;SDS011;45999;48.808;9.182;2022-12-07T01:08:01;9.00;;;8.10;;
146;SDS011;45999;48.808;9.182;2022-12-07T01:10:28;9.43;;;8.03;;
146;SDS011;45999;48.808;9.182;2022-12-07T01:12:56;8.80;;;7.80;;
146;SDS011;45999;48.808;9.182;2022-12-07T01:15:24;9.30;;;8.30;;
146;SDS011;45999;48.808;9.182;2022-12-07T01:17:51;9.53;;;8.60;;
146;SDS011;45999;48.808;9.182;2022-12-07T01:20:17;10.43;;;8.63;;
146;SDS011;45999;48.808;9.182;2022-12-07T01:22:44;8.93;;;7.90;;
146;SDS011;45999;48.808;9.182;2022-12-07T01:25:10;9.40;;;8.33;;
146;SDS011;45999;48.808;9.182;2022-12-07T01:27:37;10.20;;;8.33;;
146;SDS011;45999;48.808;9.182;2022-12-07T01:30:04;9.50;;;8.50;;
146;SDS011;45999;48.808;9.182;2022-12-07T01:32:33;9.70;;;8.40;;
146;SDS011;45999;48.808;9.182;2022-12-07T01:34:59;11.20;;;8.60;;
146;SDS011;45999;48.808;9.182;2022-12-07T01:37:26;8.63;;;7.77;;
146;SDS011;45999;48.808;9.182;2022-12-07T01:39:52;10.20;;;8.33;;
146;SDS011;45999;48.808;9.182;2022-12-07T01:42:19;9.10;;;7.93;;
146;SDS011;45999;48.808;9.182;2022-12-07T01:47:49;9.03;;;8.13;;
146;SDS011;45999;48.808;9.182;2022-12-07T01:50:19;9.47;;;8.53;;
146;SDS011;45999;48.808;9.182;2022-12-07T01:52:48;9.70;;;8.17;;
146;SDS011;45999;48.808;9.182;2022-12-07T01:55:17;9.03;;;7.83;;
146;SDS011;45999;48.808;9.182;2022-12-07T01:57:45;9.77;;;8.73;;
146;SDS011;45999;48.808;9.182;2022-12-07T02:00:16;9.37;;;8.37;;
146;SDS011;45999;48.808;9.182;2022-12-07T02:05:18;9.40;;;8.40;;
146;SDS011;45999;48.808;9.182;2022-12-07T02:07:46;8.43;;;7.60;;
146;SDS011;45999;48.808;9.182;2022-12-07T02:10:15;9.33;;;7.87;;
146;SDS011;45999;48.808;9.182;2022-12-07T02:12:44;8.43;;;7.53;;
146;SDS011;45999;48.808;9.182;2022-12-07T02:15:14;8.13;;;7.33;;
146;SDS011;45999;48.808;9.182;2022-12-07T02:17:49;9.43;;;8.27;;
146;SDS011;45999;48.808;9.182;2022-12-07T02:20:38;8.70;;;7.57;;
146;SDS011;45999;48.808;9.182;2022-12-07T02:28:56;8.73;;;7.37;;
146;SDS011;45999;48.808;9.182;2022-12-07T02:31:28;9.53;;;7.80;;
146;SDS011;45999;48.808;9.182;2022-12-07T02:33:59;13.30;;;8.53;;
146;SDS011;45999;48.808;9.182;2022-12-07T02:36:36;9.17;;;8.00;;
146;SDS011;45999;48.808;9.182;2022-12-07T02:39:11;9.00;;;8.03;;
146;SDS011;45999;48.808;9.182;2022-12-07T02:41:47;8.43;;;7.63;;
146;SDS011;45999;48.808;9.182;2022-12-07T02:44:20;9.80;;;7.90;;
146;SDS011;45999;48.808;9.182;2022-12-07T02:46:51;8.40;;;7.50;;
146;SDS011;45999;48.808;9.182;2022-12-07T02:49:24;10.27;;;8.37;;
146;SDS011;45999;48.808;9.182;2022-12-07T02:51:53;9.40;;;7.97;;
146;SDS011;45999;48.808;9.182;2022-12-07T02:54:20;7.93;;;7.13;;
146;SDS011;45999;48.808;9.182;2022-12-07T02:56:48;8.33;;;7.50;;
146;SDS011;45999;48.808;9.182;2022-12-07T03:05:30;7.93;;;7.13;;
146;SDS011;45999;48.808;9.182;2022-12-07T03:11:19;8.63;;;7.73;;
146;SDS011;45999;48.808;9.182;2022-12-07T03:16:33;9.73;;;8.27;;
146;SDS011;45999;48.808;9.182;2022-12-07T03:19:08;8.40;;;7.60;;
146;SDS011;45999;48.808;9.182;2022-12-07T03:21:42;8.73;;;7.80;;
146;SDS011;45999;48.808;9.182;2022-12-07T03:24:17;9.93;;;7.70;;
146;SDS011;45999;48.808;9.182;2022-12-07T03:27:06;8.27;;;7.40;;
146;SDS011;45999;48.808;9.182;2022-12-07T03:29:38;8.37;;;7.37;;
146;SDS011;45999;48.808;9.182;2022-12-07T03:32:57;8.50;;;7.23;;
146;SDS011;45999;48.808;9.182;2022-12-07T03:35:10;8.23;;;7.40;;
146;SDS011;45999;48.808;9.182;2022-12-07T03:37:48;8.70;;;7.80;;
146;SDS011;45999;48.808;9.182;2022-12-07T03:43:11;8.90;;;7.40;;
146;SDS011;45999;48.808;9.182;2022-12-07T03:45:39;7.77;;;7.07;;
146;SDS011;45999;48.808;9.182;2022-12-07T03:48:22;7.00;;;6.30;;
146;SDS011;45999;48.808;9.182;2022-12-07T03:51:38;7.93;;;7.13;;
146;SDS011;45999;48.808;9.182;2022-12-07T03:54:05;9.37;;;6.63;;
146;SDS011;45999;48.808;9.182;2022-12-07T03:56:34;7.77;;;6.50;;
146;SDS011;45999;48.808;9.182;2022-12-07T03:59:01;7.57;;;6.77;;
146;SDS011;45999;48.808;9.182;2022-12-07T04:01:27;7.87;;;6.50;;
146;SDS011;45999;48.808;9.182;2022-12-07T04:03:54;7.80;;;6.87;;
146;SDS011;45999;48.808;9.182;2022-12-07T04:06:20;7.07;;;6.37;;
146;SDS011;45999;48.808;9.182;2022-12-07T04:08:46;8.30;;;6.30;;
146;SDS011;45999;48.808;9.182;2022-12-07T04:11:13;8.13;;;6.67;;
146;SDS011;45999;48.808;9.182;2022-12-07T04:13:39;7.57;;;6.50;;
146;SDS011;45999;48.808;9.182;2022-12-07T04:16:23;6.60;;;6.00;;
146;SDS011;45999;48.808;9.182;2022-12-07T04:18:49;7.83;;;7.03;;
146;SDS011;45999;48.808;9.182;2022-12-07T04:21:16;7.93;;;7.13;;
146;SDS011;45999;48.808;9.182;2022-12-07T04:23:42;8.20;;;6.60;;
146;SDS011;45999;48.808;9.182;2022-12-07T04:26:08;5.93;;;5.33;;
146;SDS011;45999;48.808;9.182;2022-12-07T04:28:35;8.20;;;6.27;;
146;SDS011;45999;48.808;9.182;2022-12-07T04:31:01;6.93;;;6.27;;
146;SDS011;45999;48.808;9.182;2022-12-07T04:33:27;6.93;;;6.23;;
146;SDS011;45999;48.808;9.182;2022-12-07T04:35:54;7.33;;;6.07;;
146;SDS011;45999;48.808;9.182;2022-12-07T04:38:20;6.93;;;6.23;;
146;SDS011;45999;48.808;9.182;2022-12-07T04:40:47;6.43;;;5.33;;
146;SDS011;45999;48.808;9.182;2022-12-07T04:43:13;6.60;;;6.00;;
146;SDS011;45999;48.808;9.182;2022-12-07T04:45:39;5.93;;;5.33;;
146;SDS011;45999;48.808;9.182;2022-12-07T04:48:06;6.03;;;5.43;;
146;SDS011;45999;48.808;9.182;2022-12-07T04:50:32;7.20;;;6.00;;
146;SDS011;45999;48.808;9.182;2022-12-07T04:52:58;7.47;;;6.77;;
146;SDS011;45999;48.808;9.182;2022-12-07T04:55:25;9.40;;;7.10;;
146;SDS011;45999;48.808;9.182;2022-12-07T04:57:51;8.30;;;7.40;;
146;SDS011;45999;48.808;9.182;2022-12-07T05:00:17;8.20;;;7.37;;
146;SDS011;45999;48.808;9.182;2022-12-07T05:02:44;8.10;;;6.77;;
146;SDS011;45999;48.808;9.182;2022-12-07T05:05:10;11.10;;;7.67;;
146;SDS011;45999;48.808;9.182;2022-12-07T05:07:37;8.70;;;6.83;;
146;SDS011;45999;48.808;9.182;2022-12-07T05:10:04;7.17;;;5.80;;
146;SDS011;45999;48.808;9.182;2022-12-07T05:12:31;7.47;;;6.60;;
146;SDS011;45999;48.808;9.182;2022-12-07T05:14:57;7.80;;;6.47;;
146;SDS011;45999;48.808;9.182;2022-12-07T05:17:23;6.23;;;5.43;;
146;SDS011;45999;48.808;9.182;2022-12-07T05:19:50;7.10;;;5.50;;
146;SDS011;45999;48.808;9.182;2022-12-07T05:22:16;8.27;;;4.63;;
146;SDS011;45999;48.808;9.182;2022-12-07T05:24:42;7.47;;;5.30;;
146;SDS011;45999;48.808;9.182;2022-12-07T05:27:09;6.80;;;5.57;;
146;SDS011;45999;48.808;9.182;2022-12-07T05:29:35;7.53;;;5.87;;
146;SDS011;45999;48.808;9.182;2022-12-07T05:32:01;7.17;;;6.40;;
146;SDS011;45999;48.808;9.182;2022-12-07T05:34:28;7.50;;;6.10;;
146;SDS011;45999;48.808;9.182;2022-12-07T05:36:54;8.67;;;6.40;;
146;SDS011;45999;48.808;9.182;2022-12-07T05:39:21;7.80;;;6.77;;
146;SDS011;45999;48.808;9.182;2022-12-07T05:41:47;9.00;;;7.13;;
146;SDS011;45999;48.808;9.182;2022-12-07T05:44:31;7.77;;;6.97;;
146;SDS011;45999;48.808;9.182;2022-12-07T05:46:57;8.73;;;7.47;;
146;SDS011;45999;48.808;9.182;2022-12-07T05:49:23;10.53;;;8.30;;
146;SDS011;45999;48.808;9.182;2022-12-07T05:51:50;9.77;;;8.00;;
146;SDS011;45999;48.808;9.182;2022-12-07T05:54:16;8.87;;;6.83;;
146;SDS011;45999;48.808;9.182;2022-12-07T05:56:43;9.77;;;7.90;;
146;SDS011;45999;48.808;9.182;2022-12-07T05:59:09;8.33;;;7.33;;
146;SDS011;45999;48.808;9.182;2022-12-07T06:01:53;11.03;;;6.77;;
146;SDS011;45999;48.808;9.182;2022-12-07T06:04:25;10.53;;;7.80;;
146;SDS011;45999;48.808;9.182;2022-12-07T06:06:53;10.00;;;7.27;;
146;SDS011;45999;48.808;9.182;2022-12-07T06:09:21;12.20;;;7.87;;
146;SDS011;45999;48.808;9.182;2022-12-07T06:11:48;7.83;;;7.03;;
146;SDS011;45999;48.808;9.182;2022-12-07T06:14:32;10.57;;;6.90;;
146;SDS011;45999;48.808;9.182;2022-12-07T06:16:59;8.33;;;6.97;;
146;SDS011;45999;48.808;9.182;2022-12-07T06:19:25;8.53;;;7.47;;
146;SDS011;45999;48.808;9.182;2022-12-07T06:21:52;7.67;;;6.73;;
146;SDS011;45999;48.808;9.182;2022-12-07T06:24:19;8.20;;;6.93;;
146;SDS011;45999;48.808;9.182;2022-12-07T06:26:46;7.63;;;6.37;;
146;SDS011;45999;48.808;9.182;2022-12-07T06:29:12;8.00;;;7.20;;
146;SDS011;45999;48.808;9.182;2022-12-07T06:31:39;9.40;;;7.17;;
146;SDS011;45999;48.808;9.182;2022-12-07T06:34:07;9.10;;;6.73;;
146;SDS011;45999;48.808;9.182;2022-12-07T06:36:36;7.87;;;6.67;;
146;SDS011;45999;48.808;9.182;2022-12-07T06:39:03;7.20;;;6.50;;
146;SDS011;45999;48.808;9.182;2022-12-07T06:41:30;6.87;;;5.60;;
146;SDS011;45999;48.808;9.182;2022-12-07T06:43:56;6.00;;;5.37;;
146;SDS011;45999;48.808;9.182;2022-12-07T06:46:23;6.93;;;5.77;;
146;SDS011;45999;48.808;9.182;2022-12-07T06:48:49;7.50;;;5.80;;
146;SDS011;45999;48.808;9.182;2022-12-07T06:51:16;7.73;;;6.40;;
146;SDS011;45999;48.808;9.182;2022-12-07T06:53:42;6.57;;;5.00;;
146;SDS011;45999;48.808;9.182;2022-12-07T06:56:09;6.70;;;5.73;;
146;SDS011;45999;48.808;9.182;2022-12-07T06:58:35;6.03;;;5.43;;
146;SDS011;45999;48.808;9.182;2022-12-07T07:01:01;6.73;;;5.23;;
146;SDS011;45999;48.808;9.182;2022-12-07T07:03:28;5.80;;;5.20;;
146;SDS011;45999;48.808;9.182;2022-12-07T07:05:54;5.00;;;4.50;;
146;SDS011;45999;48.808;9.182;2022-12-07T07:08:21;5.13;;;4.50;;
146;SDS011;45999;48.808;9.182;2022-12-07T07:10:47;6.70;;;5.20;;
146;SDS011;45999;48.808;9.182;2022-12-07T07:13:14;5.90;;;4.40;;
146;SDS011;45999;48.808;9.182;2022-12-07T07:15:40;5.40;;;4.63;;
146;SDS011;45999;48.808;9.182;2022-12-07T07:18:07;5.53;;;5.03;;
146;SDS011;45999;48.808;9.182;2022-12-07T07:20:33;7.13;;;4.73;;
146;SDS011;45999;48.808;9.182;2022-12-07T07:23:00;4.77;;;4.30;;
146;SDS011;45999;48.808;9.182;2022-12-07T07:25:26;4.80;;;4.30;;
146;SDS011;45999;48.808;9.182;2022-12-07T07:27:53;5.20;;;4.70;;
146;SDS011;45999;48.808;9.182;2022-12-07T07:30:19;4.10;;;3.70;;
146;SDS011;45999;48.808;9.182;2022-12-07T07:32:46;4.20;;;3.77;;
146;SDS011;45999;48.808;9.182;2022-12-07T07:35:12;7.20;;;3.93;;
146;SDS011;45999;48.808;9.182;2022-12-07T07:37:39;5.83;;;4.53;;
146;SDS011;45999;48.808;9.182;2022-12-07T07:40:06;5.07;;;4.50;;
146;SDS011;45999;48.808;9.182;2022-12-07T07:42:34;4.20;;;3.80;;
146;SDS011;45999;48.808;9.182;2022-12-07T07:45:00;4.37;;;3.80;;
146;SDS011;45999;48.808;9.182;2022-12-07T07:47:27;4.17;;;3.63;;
146;SDS011;45999;48.808;9.182;2022-12-07T07:49:54;4.30;;;3.90;;
146;SDS011;45999;48.808;9.182;2022-12-07T07:52:20;6.33;;;4.10;;
146;SDS011;45999;48.808;9.182;2022-12-07T07:54:46;4.00;;;3.40;;
146;SDS011;45999;48.808;9.182;2022-12-07T07:57:13;4.63;;;3.27;;
146;SDS011;45999;48.808;9.182;2022-12-07T07:59:39;3.80;;;3.50;;
146;SDS011;45999;48.808;9.182;2022-12-07T08:02:07;4.13;;;3.73;;
146;SDS011;45999;48.808;9.182;2022-12-07T08:04:39;4.60;;;3.57;;
146;SDS011;45999;48.808;9.182;2022-12-07T08:07:06;4.03;;;3.60;;
146;SDS011;45999;48.808;9.182;2022-12-07T08:09:32;4.77;;;3.73;;
146;SDS011;45999;48.808;9.182;2022-12-07T08:11:58;6.07;;;3.50;;
146;SDS011;45999;48.808;9.182;2022-12-07T08:14:25;4.20;;;3.80;;
146;SDS011;45999;48.808;9.182;2022-12-07T08:16:53;3.60;;;3.20;;
146;SDS011;45999;48.808;9.182;2022-12-07T08:19:20;5.33;;;3.33;;
146;SDS011;45999;48.808;9.182;2022-12-07T08:21:46;3.37;;;3.07;;
146;SDS011;45999;48.808;9.182;2022-12-07T08:24:13;3.10;;;2.80;;
146;SDS011;45999;48.808;9.182;2022-12-07T08:26:39;4.93;;;3.10;;
146;SDS011;45999;48.808;9.182;2022-12-07T08:29:06;4.50;;;3.43;;
146;SDS011;45999;48.808;9.182;2022-12-07T08:31:32;3.47;;;3.00;;
146;SDS011;45999;48.808;9.182;2022-12-07T08:33:59;4.10;;;3.47;;
146;SDS011;45999;48.808;9.182;2022-12-07T08:36:26;4.73;;;3.53;;
146;SDS011;45999;48.808;9.182;2022-12-07T08:38:54;4.17;;;3.77;;
146;SDS011;45999;48.808;9.182;2022-12-07T08:41:20;5.53;;;3.40;;
146;SDS011;45999;48.808;9.182;2022-12-07T08:43:46;4.30;;;3.83;;
146;SDS011;45999;48.808;9.182;2022-12-07T08:46:16;6.47;;;3.63;;
146;SDS011;45999;48.808;9.182;2022-12-07T08:48:52;8.27;;;4.03;;
146;SDS011;45999;48.808;9.182;2022-12-07T08:51:27;5.47;;;3.77;;
146;SDS011;45999;48.808;9.182;2022-12-07T08:53:54;5.67;;;4.10;;
146;SDS011;45999;48.808;9.182;2022-12-07T08:56:22;4.93;;;4.40;;
146;SDS011;45999;48.808;9.182;2022-12-07T08:58:48;5.00;;;3.70;;
146;SDS011;45999;48.808;9.182;2022-12-07T09:01:15;5.17;;;3.97;;
146;SDS011;45999;48.808;9.182;2022-12-07T09:03:41;4.43;;;3.63;;
146;SDS011;45999;48.808;9.182;2022-12-07T09:06:07;6.83;;;3.47;;
146;SDS011;45999;48.808;9.182;2022-12-07T09:08:39;5.70;;;3.87;;
146;SDS011;45999;48.808;9.182;2022-12-07T09:11:09;3.73;;;3.13;;
146;SDS011;45999;48.808;9.182;2022-12-07T09:13:35;3.60;;;3.30;;
146;SDS011;45999;48.808;9.182;2022-12-07T09:16:02;4.27;;;3.27;;
146;SDS011;45999;48.808;9.182;2022-12-07T09:18:28;4.07;;;3.60;;
146;SDS011;45999;48.808;9.182;2022-12-07T09:20:55;3.73;;;3.37;;
146;SDS011;45999;48.808;9.182;2022-12-07T09:23:22;3.33;;;3.03;;
146;SDS011;45999;48.808;9.182;2022-12-07T09:25:48;3.77;;;3.40;;
146;SDS011;45999;48.808;9.182;2022-12-07T09:28:15;4.53;;;3.13;;
146;SDS011;45999;48.808;9.182;2022-12-07T09:30:48;3.50;;;2.67;;
146;SDS011;45999;48.808;9.182;2022-12-07T09:33:15;2.63;;;2.43;;
146;SDS011;45999;48.808;9.182;2022-12-07T09:35:45;4.23;;;2.53;;
146;SDS011;45999;48.808;9.182;2022-12-07T09:38:12;3.40;;;2.77;;
146;SDS011;45999;48.808;9.182;2022-12-07T09:40:38;3.27;;;2.83;;
146;SDS011;45999;48.808;9.182;2022-12-07T09:43:11;7.00;;;3.00;;
146;SDS011;45999;48.808;9.182;2022-12-07T09:45:40;5.43;;;3.03;;
146;SDS011;45999;48.808;9.182;2022-12-07T09:48:18;3.57;;;3.27;;
146;SDS011;45999;48.808;9.182;2022-12-07T09:50:57;4.70;;;3.00;;
146;SDS011;45999;48.808;9.182;2022-12-07T09:55:54;4.83;;;3.47;;
146;SDS011;45999;48.808;9.182;2022-12-07T09:58:24;3.97;;;2.87;;
146;SDS011;45999;48.808;9.182;2022-12-07T10:00:56;7.87;;;2.90;;
146;SDS011;45999;48.808;9.182;2022-12-07T10:03:26;4.13;;;3.13;;
146;SDS011;45999;48.808;9.182;2022-12-07T10:05:54;3.07;;;2.60;;
146;SDS011;45999;48.808;9.182;2022-12-07T10:08:22;4.00;;;2.57;;
146;SDS011;45999;48.808;9.182;2022-12-07T10:10:50;3.20;;;2.90;;
146;SDS011;45999;48.808;9.182;2022-12-07T10:13:22;3.87;;;2.90;;
146;SDS011;45999;48.808;9.182;2022-12-07T10:16:00;4.13;;;3.20;;
146;SDS011;45999;48.808;9.182;2022-12-07T10:18:31;4.43;;;3.40;;
146;SDS011;45999;48.808;9.182;2022-12-07T10:21:12;5.97;;;2.90;;
146;SDS011;45999;48.808;9.182;2022-12-07T10:23:40;3.17;;;2.60;;
146;SDS011;45999;48.808;9.182;2022-12-07T10:26:25;3.70;;;3.10;;
146;SDS011;45999;48.808;9.182;2022-12-07T10:28:55;5.47;;;3.47;;
146;SDS011;45999;48.808;9.182;2022-12-07T10:31:25;4.37;;;3.30;;
146;SDS011;45999;48.808;9.182;2022-12-07T10:33:52;4.23;;;3.60;;
146;SDS011;45999;48.808;9.182;2022-12-07T10:36:35;3.70;;;3.33;;
146;SDS011;45999;48.808;9.182;2022-12-07T10:41:51;5.47;;;3.70;;
146;SDS011;45999;48.808;9.182;2022-12-07T10:44:29;3.60;;;3.30;;
146;SDS011;45999;48.808;9.182;2022-12-07T10:49:59;7.57;;;3.70;;
146;SDS011;45999;48.808;9.182;2022-12-07T10:52:41;6.30;;;3.87;;
146;SDS011;45999;48.808;9.182;2022-12-07T11:00:59;3.60;;;3.30;;
146;SDS011;45999;48.808;9.182;2022-12-07T11:03:54;6.17;;;3.00;;
146;SDS011;45999;48.808;9.182;2022-12-07T11:06:53;2.50;;;2.00;;
146;SDS011;45999;48.808;9.182;2022-12-07T11:09:47;2.63;;;2.10;;
146;SDS011;45999;48.808;9.182;2022-12-07T11:15:18;5.13;;;2.87;;
146;SDS011;45999;48.808;9.182;2022-12-07T11:20:34;3.07;;;2.53;;
146;SDS011;45999;48.808;9.182;2022-12-07T11:25:40;4.53;;;2.80;;
146;SDS011;45999;48.808;9.182;2022-12-07T11:35:14;2.77;;;2.17;;
146;SDS011;45999;48.808;9.182;2022-12-07T11:37:29;2.90;;;2.13;;
146;SDS011;45999;48.808;9.182;2022-12-07T11:40:00;3.67;;;2.40;;
146;SDS011;45999;48.808;9.182;2022-12-07T11:42:36;2.83;;;2.63;;
146;SDS011;45999;48.808;9.182;2022-12-07T11:45:15;2.83;;;2.60;;
146;SDS011;45999;48.808;9.182;2022-12-07T11:47:47;3.47;;;2.80;;
146;SDS011;45999;48.808;9.182;2022-12-07T11:56:07;4.23;;;3.07;;
146;SDS011;45999;48.808;9.182;2022-12-07T12:06:37;6.00;;;3.80;;
146;SDS011;45999;48.808;9.182;2022-12-07T12:09:18;4.80;;;3.73;;
146;SDS011;45999;48.808;9.182;2022-12-07T12:19:57;4.43;;;3.87;;
146;SDS011;45999;48.808;9.182;2022-12-07T12:22:37;5.47;;;3.93;;
146;SDS011;45999;48.808;9.182;2022-12-07T12:25:14;5.73;;;4.33;;
146;SDS011;45999;48.808;9.182;2022-12-07T12:27:54;4.80;;;4.20;;
146;SDS011;45999;48.808;9.182;2022-12-07T12:30:25;6.17;;;4.57;;
146;SDS011;45999;48.808;9.182;2022-12-07T12:32:52;7.23;;;5.23;;
146;SDS011;45999;48.808;9.182;2022-12-07T12:35:31;6.43;;;4.87;;
146;SDS011;45999;48.808;9.182;2022-12-07T12:40:53;6.30;;;4.37;;
146;SDS011;45999;48.808;9.182;2022-12-07T12:43:39;9.80;;;4.93;;
146;SDS011;45999;48.808;9.182;2022-12-07T12:52:47;5.03;;;4.37;;
146;SDS011;45999;48.808;9.182;2022-12-07T12:57:33;6.43;;;4.73;;
146;SDS011;45999;48.808;9.182;2022-12-07T13:00:02;7.23;;;4.47;;
146;SDS011;45999;48.808;9.182;2022-12-07T13:02:48;5.83;;;4.83;;
146;SDS011;45999;48.808;9.182;2022-12-07T13:05:23;5.80;;;4.77;;
146;SDS011;45999;48.808;9.182;2022-12-07T13:08:02;5.23;;;4.23;;
146;SDS011;45999;48.808;9.182;2022-12-07T13:10:42;5.80;;;4.40;;
146;SDS011;45999;48.808;9.182;2022-12-07T13:15:44;6.32;;;5.03;;
146;SDS011;45999;48.808;9.182;2022-12-07T13:20:59;7.07;;;4.40;;
146;SDS011;45999;48.808;9.182;2022-12-07T13:29:12;5.97;;;4.50;;
146;SDS011;45999;48.808;9.182;2022-12-07T13:31:54;5.13;;;4.10;;
146;SDS011;45999;48.808;9.182;2022-12-07T13:34:30;5.93;;;4.60;;
146;SDS011;45999;48.808;9.182;2022-12-07T13:37:08;6.90;;;4.40;;
146;SDS011;45999;48.808;9.182;2022-12-07T13:39:45;7.53;;;4.60;;
146;SDS011;45999;48.808;9.182;2022-12-07T13:42:29;5.47;;;4.10;;
146;SDS011;45999;48.808;9.182;2022-12-07T13:44:58;8.87;;;4.90;;
146;SDS011;45999;48.808;9.182;2022-12-07T13:47:48;6.77;;;5.13;;
146;SDS011;45999;48.808;9.182;2022-12-07T13:52:59;6.50;;;5.03;;
146;SDS011;45999;48.808;9.182;2022-12-07T13:55:27;7.70;;;5.73;;
146;SDS011;45999;48.808;9.182;2022-12-07T13:57:55;6.43;;;5.13;;
146;SDS011;45999;48.808;9.182;2022-12-07T14:00:26;7.17;;;5.67;;
146;SDS011;45999;48.808;9.182;2022-12-07T14:05:27;9.53;;;5.30;;
146;SDS011;45999;48.808;9.182;2022-12-07T14:08:03;8.67;;;6.40;;
146;SDS011;45999;48.808;9.182;2022-12-07T14:10:31;7.97;;;6.03;;
146;SDS011;45999;48.808;9.182;2022-12-07T14:13:03;8.97;;;5.90;;
146;SDS011;45999;48.808;9.182;2022-12-07T14:15:50;6.70;;;5.30;;
146;SDS011;45999;48.808;9.182;2022-12-07T14:18:24;6.43;;;5.17;;
146;SDS011;45999;48.808;9.182;2022-12-07T14:21:06;6.90;;;5.60;;
146;SDS011;45999;48.808;9.182;2022-12-07T14:23:43;6.83;;;5.53;;
146;SDS011;45999;48.808;9.182;2022-12-07T14:26:14;5.83;;;5.23;;
146;SDS011;45999;48.808;9.182;2022-12-07T14:28:42;7.73;;;4.83;;
146;SDS011;45999;48.808;9.182;2022-12-07T14:33:40;6.70;;;5.97;;
146;SDS011;45999;48.808;9.182;2022-12-07T14:36:11;7.27;;;5.70;;
146;SDS011;45999;48.808;9.182;2022-12-07T14:38:38;6.03;;;4.83;;
146;SDS011;45999;48.808;9.182;2022-12-07T14:41:14;7.40;;;5.43;;
146;SDS011;45999;48.808;9.182;2022-12-07T14:44:08;6.33;;;5.27;;
146;SDS011;45999;48.808;9.182;2022-12-07T14:46:37;6.27;;;5.20;;
146;SDS011;45999;48.808;9.182;2022-12-07T14:49:03;6.17;;;5.00;;
146;SDS011;45999;48.808;9.182;2022-12-07T14:51:30;7.73;;;5.40;;
146;SDS011;45999;48.808;9.182;2022-12-07T14:53:57;8.80;;;5.13;;
146;SDS011;45999;48.808;9.182;2022-12-07T14:56:24;9.13;;;5.37;;
146;SDS011;45999;48.808;9.182;2022-12-07T14:58:51;6.57;;;5.00;;
146;SDS011;45999;48.808;9.182;2022-12-07T15:01:17;7.57;;;5.50;;
146;SDS011;45999;48.808;9.182;2022-12-07T15:03:44;8.63;;;6.07;;
146;SDS011;45999;48.808;9.182;2022-12-07T15:06:13;7.83;;;5.83;;
146;SDS011;45999;48.808;9.182;2022-12-07T15:08:40;11.30;;;5.73;;
146;SDS011;45999;48.808;9.182;2022-12-07T15:11:13;8.10;;;4.97;;
146;SDS011;45999;48.808;9.182;2022-12-07T15:13:40;6.77;;;5.33;;
146;SDS011;45999;48.808;9.182;2022-12-07T15:16:24;10.63;;;6.03;;
146;SDS011;45999;48.808;9.182;2022-12-07T15:18:51;8.20;;;5.00;;
146;SDS011;45999;48.808;9.182;2022-12-07T15:21:17;6.83;;;5.27;;
146;SDS011;45999;48.808;9.182;2022-12-07T15:23:44;5.37;;;4.73;;
146;SDS011;45999;48.808;9.182;2022-12-07T15:26:12;7.73;;;5.10;;
146;SDS011;45999;48.808;9.182;2022-12-07T15:28:38;6.17;;;5.00;;
146;SDS011;45999;48.808;9.182;2022-12-07T15:31:12;7.07;;;5.90;;
146;SDS011;45999;48.808;9.182;2022-12-07T15:33:39;10.97;;;7.07;;
146;SDS011;45999;48.808;9.182;2022-12-07T15:36:06;10.17;;;6.17;;
146;SDS011;45999;48.808;9.182;2022-12-07T15:38:33;10.47;;;7.20;;
146;SDS011;45999;48.808;9.182;2022-12-07T15:41:01;8.27;;;6.93;;
146;SDS011;45999;48.808;9.182;2022-12-07T15:43:27;9.37;;;6.80;;
146;SDS011;45999;48.808;9.182;2022-12-07T15:46:11;8.90;;;7.33;;
146;SDS011;45999;48.808;9.182;2022-12-07T15:48:39;9.63;;;7.20;;
146;SDS011;45999;48.808;9.182;2022-12-07T15:51:06;13.93;;;6.87;;
146;SDS011;45999;48.808;9.182;2022-12-07T15:53:35;8.00;;;6.17;;
146;SDS011;45999;48.808;9.182;2022-12-07T15:56:05;7.97;;;7.03;;
146;SDS011;45999;48.808;9.182;2022-12-07T15:58:32;9.30;;;7.17;;
146;SDS011;45999;48.808;9.182;2022-12-07T16:00:59;7.70;;;6.90;;
146;SDS011;45999;48.808;9.182;2022-12-07T16:03:26;10.60;;;7.40;;
146;SDS011;45999;48.808;9.182;2022-12-07T16:05:53;9.57;;;7.40;;
146;SDS011;45999;48.808;9.182;2022-12-07T16:08:20;9.80;;;7.30;;
146;SDS011;45999;48.808;9.182;2022-12-07T16:10:46;8.47;;;7.30;;
146;SDS011;45999;48.808;9.182;2022-12-07T16:13:13;8.20;;;6.67;;
146;SDS011;45999;48.808;9.182;2022-12-07T16:15:39;9.87;;;6.83;;
146;SDS011;45999;48.808;9.182;2022-12-07T16:18:07;8.20;;;6.27;;
146;SDS011;45999;48.808;9.182;2022-12-07T16:20:33;8.20;;;6.10;;
146;SDS011;45999;48.808;9.182;2022-12-07T16:23:00;9.77;;;7.70;;
146;SDS011;45999;48.808;9.182;2022-12-07T16:25:26;8.43;;;7.53;;
146;SDS011;45999;48.808;9.182;2022-12-07T16:27:53;8.07;;;6.50;;
146;SDS011;45999;48.808;9.182;2022-12-07T16:30:19;8.30;;;7.00;;
146;SDS011;45999;48.808;9.182;2022-12-07T16:32:46;8.60;;;6.97;;
146;SDS011;45999;48.808;9.182;2022-12-07T16:35:12;10.50;;;8.13;;
146;SDS011;45999;48.808;9.182;2022-12-07T16:37:41;11.17;;;8.40;;
146;SDS011;45999;48.808;9.182;2022-12-07T16:40:09;11.07;;;8.47;;
146;SDS011;45999;48.808;9.182;2022-12-07T16:42:36;14.40;;;9.20;;
146;SDS011;45999;48.808;9.182;2022-12-07T16:45:03;10.00;;;8.23;;
146;SDS011;45999;48.808;9.182;2022-12-07T16:47:30;10.23;;;8.47;;
146;SDS011;45999;48.808;9.182;2022-12-07T16:49:56;11.40;;;8.90;;
146;SDS011;45999;48.808;9.182;2022-12-07T16:52:22;11.77;;;8.57;;
146;SDS011;45999;48.808;9.182;2022-12-07T16:54:49;10.50;;;8.40;;
146;SDS011;45999;48.808;9.182;2022-12-07T16:57:16;10.53;;;8.87;;
146;SDS011;45999;48.808;9.182;2022-12-07T16:59:44;11.63;;;8.67;;
146;SDS011;45999;48.808;9.182;2022-12-07T17:02:11;11.87;;;8.30;;
146;SDS011;45999;48.808;9.182;2022-12-07T17:04:38;9.87;;;8.27;;
146;SDS011;45999;48.808;9.182;2022-12-07T17:07:04;11.27;;;8.70;;
146;SDS011;45999;48.808;9.182;2022-12-07T17:09:31;9.67;;;7.90;;
146;SDS011;45999;48.808;9.182;2022-12-07T17:11:58;11.07;;;8.90;;
146;SDS011;45999;48.808;9.182;2022-12-07T17:14:24;11.50;;;8.67;;
146;SDS011;45999;48.808;9.182;2022-12-07T17:17:08;10.53;;;8.13;;
146;SDS011;45999;48.808;9.182;2022-12-07T17:19:34;9.00;;;7.70;;
146;SDS011;45999;48.808;9.182;2022-12-07T17:22:00;7.90;;;6.87;;